Time;durP1;ratioP1;P1;durP2;ratioP2;P2;SDS_P1;SDS_P2;PMS_P1;PMS_P2;Temp;Humidity;BMP_temperature;BMP_pressure;BME280_temperature;BME280_humidity;BME280_pressure;Samples;Min_cycle;Max_cycle;Signal;HPM_P1;HPM_P2
2021/05/25 00:00:20;;;;;;;10.05;7.53;;;;;;;;;;5084779;28;20426;-70
2021/05/25 00:02:47;;;;;;;9.18;7.25;;;;;;;;;;5089331;28;20983;-70
2021/05/25 00:05:16;;;;;;;9.73;8.05;;;;;;;;;;5085424;28;20436;-71
2021/05/25 00:07:42;;;;;;;9.50;7.25;;;;;;;;;;5083586;28;20396;-70
2021/05/25 00:10:08;;;;;;;8.60;6.55;;;;;;;;;;5086986;28;20434;-70
2021/05/25 00:12:35;;;;;;;8.18;6.85;;;;;;;;;;5086476;28;20851;-71
2021/05/25 00:15:02;;;;;;;9.82;7.53;;;;;;;;;;5081308;28;20426;-71
2021/05/25 00:17:28;;;;;;;10.00;7.67;;;;;;;;;;5085891;28;20928;-70
2021/05/25 00:19:54;;;;;;;9.80;7.30;;;;;;;;;;5087314;28;20390;-71
2021/05/25 00:22:20;;;;;;;8.48;7.22;;;;;;;;;;5086816;28;20398;-70
2021/05/25 00:24:46;;;;;;;8.45;7.15;;;;;;;;;;5086799;28;20855;-70
2021/05/25 00:27:12;;;;;;;9.50;7.47;;;;;;;;;;5088694;28;20386;-71
2021/05/25 00:29:38;;;;;;;10.33;7.67;;;;;;;;;;5082792;28;20390;-70
2021/05/25 00:32:04;;;;;;;8.65;7.50;;;;;;;;;;5085500;28;20406;-69
2021/05/25 00:34:30;;;;;;;8.50;7.40;;;;;;;;;;5083004;28;20403;-70
2021/05/25 00:36:56;;;;;;;8.97;7.47;;;;;;;;;;5084648;28;20533;-70
2021/05/25 00:39:22;;;;;;;8.27;6.82;;;;;;;;;;5088831;28;20433;-71
2021/05/25 00:41:48;;;;;;;9.75;7.80;;;;;;;;;;5084983;28;20417;-70
2021/05/25 00:44:14;;;;;;;8.95;7.18;;;;;;;;;;5082337;28;21169;-69
2021/05/25 00:46:40;;;;;;;9.38;8.25;;;;;;;;;;5085491;28;20490;-70
2021/05/25 00:49:06;;;;;;;9.40;7.72;;;;;;;;;;5086891;28;20392;-70
2021/05/25 00:51:33;;;;;;;11.52;8.35;;;;;;;;;;5088127;28;20422;-71
2021/05/25 00:54:01;;;;;;;9.90;8.15;;;;;;;;;;5085304;28;21083;-70
2021/05/25 00:56:27;;;;;;;10.93;8.60;;;;;;;;;;5081963;28;20423;-71
2021/05/25 00:58:53;;;;;;;9.68;8.10;;;;;;;;;;5084900;28;20459;-70
2021/05/25 01:01:19;;;;;;;10.05;8.73;;;;;;;;;;5082701;28;20410;-71
2021/05/25 01:03:45;;;;;;;9.77;7.78;;;;;;;;;;5085331;28;20409;-70
2021/05/25 01:06:11;;;;;;;9.93;8.18;;;;;;;;;;5080919;28;20890;-69
2021/05/25 01:08:39;;;;;;;10.57;8.38;;;;;;;;;;5083787;28;20390;-70
2021/05/25 01:11:07;;;;;;;8.38;7.05;;;;;;;;;;5084630;28;20448;-70
2021/05/25 01:13:46;;;;;;;8.18;7.38;;;;;;;;;;5082916;28;20420;-70
2021/05/25 01:16:13;;;;;;;9.38;7.03;;;;;;;;;;5080748;28;20962;-70
2021/05/25 01:18:39;;;;;;;7.65;5.80;;;;;;;;;;5081099;28;20484;-70
2021/05/25 01:21:11;;;;;;;8.18;5.47;;;;;;;;;;5085451;28;20477;-69
2021/05/25 01:23:37;;;;;;;7.60;5.15;;;;;;;;;;5086512;28;20401;-70
2021/05/25 01:26:04;;;;;;;6.15;4.10;;;;;;;;;;5082168;28;20477;-69
2021/05/25 01:28:32;;;;;;;5.93;4.27;;;;;;;;;;5079517;28;20489;-71
2021/05/25 01:30:58;;;;;;;5.95;3.92;;;;;;;;;;5086469;28;20398;-71
2021/05/25 01:33:26;;;;;;;7.28;3.70;;;;;;;;;;5082207;28;20395;-69
2021/05/25 01:35:52;;;;;;;7.00;3.80;;;;;;;;;;5084641;28;20488;-70
2021/05/25 01:38:18;;;;;;;5.53;3.80;;;;;;;;;;5084280;28;20397;-70
2021/05/25 01:40:45;;;;;;;6.80;3.97;;;;;;;;;;5087393;28;20865;-69
2021/05/25 01:43:11;;;;;;;7.80;4.43;;;;;;;;;;5086091;28;20410;-70
2021/05/25 01:45:37;;;;;;;6.97;4.47;;;;;;;;;;5083935;28;20428;-69
2021/05/25 01:48:04;;;;;;;6.53;4.18;;;;;;;;;;5082710;28;20410;-70
2021/05/25 01:50:31;;;;;;;6.15;4.65;;;;;;;;;;5081066;28;20944;-69
2021/05/25 01:53:02;;;;;;;7.25;4.72;;;;;;;;;;5081431;28;20386;-70
2021/05/25 01:55:30;;;;;;;6.97;4.82;;;;;;;;;;5087051;28;20386;-69
2021/05/25 01:57:57;;;;;;;7.45;5.40;;;;;;;;;;5084772;28;20396;-70
2021/05/25 02:00:23;;;;;;;8.95;5.32;;;;;;;;;;5087673;28;20429;-69
2021/05/25 02:02:49;;;;;;;7.95;5.35;;;;;;;;;;5084264;28;20400;-69
2021/05/25 02:05:15;;;;;;;8.10;5.70;;;;;;;;;;5084868;28;20440;-70
2021/05/25 02:07:45;;;;;;;8.02;6.22;;;;;;;;;;5081653;28;20434;-70
2021/05/25 02:10:20;;;;;;;9.45;6.72;;;;;;;;;;5083416;28;20433;-70
2021/05/25 02:12:46;;;;;;;8.75;6.32;;;;;;;;;;5078965;28;20867;-70
2021/05/25 02:15:12;;;;;;;9.20;6.70;;;;;;;;;;5080996;28;20434;-70
2021/05/25 02:17:38;;;;;;;8.75;6.97;;;;;;;;;;5080107;28;20446;-69
2021/05/25 02:20:05;;;;;;;9.45;7.50;;;;;;;;;;5082644;28;20401;-70
2021/05/25 02:22:31;;;;;;;10.68;7.63;;;;;;;;;;5084055;28;20400;-69
2021/05/25 02:24:56;;;;;;;10.10;7.20;;;;;;;;;;5084880;28;20993;-70
2021/05/25 02:27:22;;;;;;;12.05;9.10;;;;;;;;;;5080279;28;20730;-70
2021/05/25 02:29:48;;;;;;;21.17;9.98;;;;;;;;;;5077424;28;20862;-69
2021/05/25 02:32:14;;;;;;;11.70;10.25;;;;;;;;;;5069456;28;20409;-69
2021/05/25 02:34:40;;;;;;;14.20;9.93;;;;;;;;;;5074599;28;20400;-70
2021/05/25 02:37:06;;;;;;;14.97;11.83;;;;;;;;;;5083473;28;20410;-71
2021/05/25 02:39:32;;;;;;;14.50;12.45;;;;;;;;;;5077608;28;20414;-70
2021/05/25 02:41:58;;;;;;;15.75;13.13;;;;;;;;;;5077523;28;20404;-69
2021/05/25 02:44:24;;;;;;;16.40;13.18;;;;;;;;;;5076321;28;20399;-69
2021/05/25 02:46:50;;;;;;;17.13;14.13;;;;;;;;;;5083377;28;20410;-69
2021/05/25 02:49:16;;;;;;;16.47;13.43;;;;;;;;;;5080300;28;20474;-69
2021/05/25 02:51:42;;;;;;;15.75;13.90;;;;;;;;;;5080044;28;20865;-70
2021/05/25 02:54:08;;;;;;;16.08;14.20;;;;;;;;;;5080647;28;20455;-70
2021/05/25 02:56:34;;;;;;;17.75;14.35;;;;;;;;;;5081705;28;20911;-69
2021/05/25 02:59:00;;;;;;;15.38;13.75;;;;;;;;;;5082114;28;20394;-70
2021/05/25 03:01:26;;;;;;;17.42;13.40;;;;;;;;;;5082541;28;20422;-71
2021/05/25 03:03:52;;;;;;;16.73;13.45;;;;;;;;;;5079523;28;20521;-69
2021/05/25 03:06:18;;;;;;;16.17;12.88;;;;;;;;;;5080975;28;21060;-69
2021/05/25 03:08:45;;;;;;;15.93;12.93;;;;;;;;;;5075008;28;20432;-69
2021/05/25 03:11:11;;;;;;;14.98;12.55;;;;;;;;;;5078614;28;20387;-69
2021/05/25 03:13:37;;;;;;;14.80;11.98;;;;;;;;;;5079633;28;20392;-69
2021/05/25 03:16:03;;;;;;;14.32;11.43;;;;;;;;;;5082589;28;20801;-69
2021/05/25 03:18:29;;;;;;;14.50;12.23;;;;;;;;;;5075620;28;20480;-70
2021/05/25 03:20:55;;;;;;;14.00;11.25;;;;;;;;;;5078458;28;20514;-69
2021/05/25 03:23:21;;;;;;;13.80;10.98;;;;;;;;;;5085464;28;20383;-69
2021/05/25 03:25:49;;;;;;;13.93;10.45;;;;;;;;;;5087213;28;20418;-70
2021/05/25 03:28:15;;;;;;;12.80;9.77;;;;;;;;;;5078428;28;20892;-69
2021/05/25 03:30:43;;;;;;;13.00;9.95;;;;;;;;;;5077746;28;20423;-71
2021/05/25 03:33:09;;;;;;;11.05;8.20;;;;;;;;;;5080641;28;20921;-70
2021/05/25 03:35:35;;;;;;;12.68;8.88;;;;;;;;;;5083514;28;20408;-69
2021/05/25 03:38:02;;;;;;;9.80;7.72;;;;;;;;;;5076115;28;20382;-70
2021/05/25 03:40:28;;;;;;;11.13;7.63;;;;;;;;;;5072847;28;20417;-69
2021/05/25 03:42:55;;;;;;;9.63;7.18;;;;;;;;;;5072880;28;20405;-70
2021/05/25 03:45:22;;;;;;;8.80;6.50;;;;;;;;;;5080834;28;20413;-69
2021/05/25 03:47:48;;;;;;;10.43;6.00;;;;;;;;;;5079902;28;20458;-71
2021/05/25 03:50:15;;;;;;;8.32;5.80;;;;;;;;;;5084036;28;20414;-69
2021/05/25 03:52:43;;;;;;;10.30;5.30;;;;;;;;;;5081728;28;20911;-69
2021/05/25 03:55:22;;;;;;;14.70;5.63;;;;;;;;;;5082699;28;20405;-70
2021/05/25 04:00:33;;;;;;;7.95;4.97;;;;;;;;;;5078955;28;20403;-70
2021/05/25 04:02:59;;;;;;;8.65;4.97;;;;;;;;;;5082039;28;20403;-70
2021/05/25 04:05:26;;;;;;;7.13;4.75;;;;;;;;;;5081292;28;20429;-69
2021/05/25 04:07:52;;;;;;;8.93;4.90;;;;;;;;;;5078518;28;20845;-70
2021/05/25 04:10:18;;;;;;;7.85;4.70;;;;;;;;;;5079140;28;20404;-70
2021/05/25 04:12:44;;;;;;;8.65;5.07;;;;;;;;;;5081317;28;20400;-70
2021/05/25 04:15:10;;;;;;;7.35;4.63;;;;;;;;;;5079612;28;20398;-69
2021/05/25 04:17:37;;;;;;;6.88;4.45;;;;;;;;;;5079863;28;20433;-69
2021/05/25 04:20:03;;;;;;;6.68;4.10;;;;;;;;;;5080269;28;20383;-69
2021/05/25 04:22:30;;;;;;;7.55;4.20;;;;;;;;;;5078920;28;20912;-69
2021/05/25 04:24:56;;;;;;;9.70;4.35;;;;;;;;;;5080317;28;20474;-69
2021/05/25 04:27:22;;;;;;;7.97;4.60;;;;;;;;;;5065728;28;20396;-69
2021/05/25 04:29:48;;;;;;;8.45;5.03;;;;;;;;;;5073308;28;20398;-71
2021/05/25 04:32:14;;;;;;;8.25;4.63;;;;;;;;;;5078688;28;20394;-69
2021/05/25 04:34:40;;;;;;;7.20;4.22;;;;;;;;;;5075095;28;20419;-69
2021/05/25 04:37:06;;;;;;;13.30;5.13;;;;;;;;;;5078910;28;20398;-69
2021/05/25 04:39:32;;;;;;;10.55;4.88;;;;;;;;;;5080597;28;20859;-69
2021/05/25 04:41:58;;;;;;;8.13;5.05;;;;;;;;;;5078700;28;20402;-70
2021/05/25 04:44:24;;;;;;;10.23;5.15;;;;;;;;;;5081345;28;20400;-70
2021/05/25 04:46:50;;;;;;;8.18;5.53;;;;;;;;;;5083158;28;20469;-68
2021/05/25 04:49:16;;;;;;;9.80;5.80;;;;;;;;;;5079924;28;20415;-70
2021/05/25 04:51:42;;;;;;;7.93;5.45;;;;;;;;;;5082683;28;20887;-69
2021/05/25 04:54:08;;;;;;;9.52;5.72;;;;;;;;;;5083599;28;20897;-69
2021/05/25 04:56:35;;;;;;;10.07;6.10;;;;;;;;;;5085233;28;20405;-68
2021/05/25 04:59:01;;;;;;;8.57;5.90;;;;;;;;;;5082405;28;20390;-69
2021/05/25 05:01:30;;;;;;;9.90;6.77;;;;;;;;;;5084345;28;20470;-69
2021/05/25 05:03:56;;;;;;;9.18;6.38;;;;;;;;;;5085662;28;20926;-69
2021/05/25 05:06:22;;;;;;;9.40;6.50;;;;;;;;;;5082277;28;20506;-69
2021/05/25 05:08:48;;;;;;;9.33;6.60;;;;;;;;;;5084028;28;20538;-70
2021/05/25 05:11:14;;;;;;;9.50;6.35;;;;;;;;;;5079013;28;20477;-69
2021/05/25 05:13:40;;;;;;;10.65;7.35;;;;;;;;;;5084860;28;20437;-70
2021/05/25 05:16:06;;;;;;;10.27;7.30;;;;;;;;;;5076015;28;20753;-69
2021/05/25 05:18:32;;;;;;;11.38;7.40;;;;;;;;;;5082349;28;20397;-69
2021/05/25 05:20:58;;;;;;;10.13;7.60;;;;;;;;;;5085060;28;20478;-70
2021/05/25 05:23:24;;;;;;;11.05;7.22;;;;;;;;;;5084420;28;20904;-69
2021/05/25 05:25:50;;;;;;;10.18;7.47;;;;;;;;;;5082304;28;20480;-70
2021/05/25 05:28:16;;;;;;;10.50;7.67;;;;;;;;;;5079582;28;20424;-69
2021/05/25 05:30:42;;;;;;;10.43;7.57;;;;;;;;;;5080177;28;20411;-69
2021/05/25 05:33:09;;;;;;;10.02;7.57;;;;;;;;;;5080269;28;20404;-69
2021/05/25 05:35:35;;;;;;;12.02;7.82;;;;;;;;;;5081270;28;20912;-69
2021/05/25 05:38:01;;;;;;;11.23;8.35;;;;;;;;;;5075474;28;20391;-69
2021/05/25 05:40:27;;;;;;;12.05;7.95;;;;;;;;;;5081183;28;20899;-69
2021/05/25 05:42:53;;;;;;;12.32;8.70;;;;;;;;;;5076497;28;20421;-69
2021/05/25 05:45:20;;;;;;;11.63;8.90;;;;;;;;;;5082968;28;20416;-69
2021/05/25 05:47:46;;;;;;;12.15;8.68;;;;;;;;;;5080504;28;20420;-69
2021/05/25 05:50:12;;;;;;;13.77;8.60;;;;;;;;;;5082930;28;20402;-69
2021/05/25 05:52:39;;;;;;;12.18;9.25;;;;;;;;;;5077487;28;20427;-69
2021/05/25 05:55:06;;;;;;;11.73;8.88;;;;;;;;;;5079489;28;20923;-70
2021/05/25 05:57:32;;;;;;;12.88;9.05;;;;;;;;;;5083083;28;20712;-70
2021/05/25 05:59:58;;;;;;;11.18;8.95;;;;;;;;;;5076643;28;20383;-70
2021/05/25 06:02:24;;;;;;;11.15;8.63;;;;;;;;;;5083666;28;20397;-69
2021/05/25 06:04:50;;;;;;;10.17;8.57;;;;;;;;;;5079519;28;20389;-70
2021/05/25 06:07:17;;;;;;;11.88;9.70;;;;;;;;;;5078785;28;20394;-69
2021/05/25 06:09:43;;;;;;;11.95;9.15;;;;;;;;;;5077897;28;20401;-69
2021/05/25 06:12:10;;;;;;;11.32;9.52;;;;;;;;;;5082289;28;20390;-68
2021/05/25 06:14:36;;;;;;;12.68;9.10;;;;;;;;;;5082403;28;20401;-69
2021/05/25 06:17:02;;;;;;;13.50;9.65;;;;;;;;;;5080127;28;20467;-69
2021/05/25 06:19:28;;;;;;;12.15;9.50;;;;;;;;;;5082022;28;20565;-69
2021/05/25 06:21:54;;;;;;;14.73;10.30;;;;;;;;;;5089070;28;20382;-69
2021/05/25 06:24:20;;;;;;;11.00;9.68;;;;;;;;;;5078408;28;20504;-68
2021/05/25 06:26:46;;;;;;;11.45;9.07;;;;;;;;;;5080673;28;20422;-69
2021/05/25 06:29:12;;;;;;;13.15;10.30;;;;;;;;;;5077954;28;20427;-69
2021/05/25 06:31:38;;;;;;;13.77;10.73;;;;;;;;;;5082782;28;20382;-69
2021/05/25 06:34:04;;;;;;;14.10;10.20;;;;;;;;;;5080778;28;20467;-69
2021/05/25 06:36:30;;;;;;;10.70;9.55;;;;;;;;;;5077551;28;20424;-69
2021/05/25 06:38:56;;;;;;;12.38;10.07;;;;;;;;;;5081216;28;20404;-69
2021/05/25 06:41:22;;;;;;;13.07;10.10;;;;;;;;;;5075561;28;20474;-69
2021/05/25 06:43:48;;;;;;;11.18;9.30;;;;;;;;;;5082398;28;20386;-69
2021/05/25 06:46:14;;;;;;;12.57;9.68;;;;;;;;;;5078755;28;20428;-69
2021/05/25 06:48:40;;;;;;;11.43;9.70;;;;;;;;;;5081620;28;20454;-70
2021/05/25 06:51:07;;;;;;;11.80;9.60;;;;;;;;;;5081984;28;20929;-68
2021/05/25 06:53:36;;;;;;;13.07;10.60;;;;;;;;;;5078885;28;20850;-68
2021/05/25 06:56:03;;;;;;;11.85;10.00;;;;;;;;;;5081633;28;20411;-69
2021/05/25 06:58:29;;;;;;;12.68;10.38;;;;;;;;;;5082005;28;21051;-69
2021/05/25 07:00:55;;;;;;;11.70;9.85;;;;;;;;;;5080418;28;20437;-69
2021/05/25 07:03:21;;;;;;;12.02;10.55;;;;;;;;;;5081560;28;20393;-68
2021/05/25 07:05:46;;;;;;;18.88;11.30;;;;;;;;;;5080477;28;20431;-69
2021/05/25 07:08:12;;;;;;;20.65;12.48;;;;;;;;;;5079989;28;20397;-69
2021/05/25 07:10:38;;;;;;;19.65;13.23;;;;;;;;;;5080921;28;20430;-69
2021/05/25 07:13:05;;;;;;;15.45;11.88;;;;;;;;;;5079509;28;20379;-70
2021/05/25 07:15:31;;;;;;;16.60;11.60;;;;;;;;;;5083510;28;20405;-69
2021/05/25 07:17:57;;;;;;;14.45;11.15;;;;;;;;;;5079780;28;20404;-69
2021/05/25 07:20:24;;;;;;;12.63;11.00;;;;;;;;;;5078605;28;20449;-69
2021/05/25 07:22:54;;;;;;;13.40;10.45;;;;;;;;;;5081277;28;20479;-69
2021/05/25 07:25:22;;;;;;;12.70;10.18;;;;;;;;;;5079642;28;20498;-70
2021/05/25 07:27:48;;;;;;;10.88;9.57;;;;;;;;;;5078740;28;20863;-70
2021/05/25 07:30:14;;;;;;;11.07;9.53;;;;;;;;;;5079280;28;20466;-69
2021/05/25 07:32:41;;;;;;;11.10;9.27;;;;;;;;;;5087547;28;20390;-69
2021/05/25 07:35:07;;;;;;;11.32;8.75;;;;;;;;;;5079107;28;20400;-70
2021/05/25 07:37:34;;;;;;;13.05;9.13;;;;;;;;;;5080783;28;20433;-71
2021/05/25 07:40:00;;;;;;;12.73;9.30;;;;;;;;;;5077995;28;20386;-69
2021/05/25 07:42:26;;;;;;;11.88;9.02;;;;;;;;;;5079383;28;20456;-70
2021/05/25 07:44:52;;;;;;;15.05;10.15;;;;;;;;;;5075722;28;20414;-69
2021/05/25 07:47:18;;;;;;;17.00;10.88;;;;;;;;;;5079508;28;20438;-69
2021/05/25 07:49:44;;;;;;;12.50;9.70;;;;;;;;;;5078891;28;20422;-71
2021/05/25 07:52:11;;;;;;;13.98;9.40;;;;;;;;;;5077808;28;20452;-69
2021/05/25 07:54:37;;;;;;;13.73;9.43;;;;;;;;;;5086090;28;20412;-70
2021/05/25 07:57:03;;;;;;;19.27;9.98;;;;;;;;;;5076804;28;20439;-69
2021/05/25 07:59:29;;;;;;;15.35;9.95;;;;;;;;;;5079928;28;20410;-70
2021/05/25 08:01:55;;;;;;;14.55;10.55;;;;;;;;;;5082136;28;20392;-69
2021/05/25 08:04:21;;;;;;;15.63;10.05;;;;;;;;;;5080165;28;20478;-69
2021/05/25 08:06:47;;;;;;;13.32;9.20;;;;;;;;;;5087219;28;21096;-69
2021/05/25 08:09:13;;;;;;;16.70;9.05;;;;;;;;;;5079907;28;20433;-69
2021/05/25 08:11:39;;;;;;;12.10;9.40;;;;;;;;;;5079868;28;20415;-70
2021/05/25 08:14:07;;;;;;;15.85;10.20;;;;;;;;;;5084605;28;21183;-70
2021/05/25 08:16:35;;;;;;;15.30;9.48;;;;;;;;;;5083109;28;20391;-71
2021/05/25 08:21:39;;;;;;;19.55;9.30;;;;;;;;;;5083480;28;20412;-69
2021/05/25 08:24:06;;;;;;;21.25;10.32;;;;;;;;;;5081038;28;20473;-69
2021/05/25 08:26:34;;;;;;;16.48;9.60;;;;;;;;;;5083044;28;20414;-69
2021/05/25 08:29:00;;;;;;;13.57;9.00;;;;;;;;;;5090510;28;20393;-70
2021/05/25 08:31:26;;;;;;;16.65;10.00;;;;;;;;;;5086235;28;21040;-70
2021/05/25 08:33:52;;;;;;;13.05;8.77;;;;;;;;;;5096955;28;20467;-69
2021/05/25 08:36:18;;;;;;;11.85;8.30;;;;;;;;;;5080698;28;20390;-70
2021/05/25 08:38:45;;;;;;;13.43;7.63;;;;;;;;;;5083633;28;20409;-69
2021/05/25 08:41:11;;;;;;;13.60;7.28;;;;;;;;;;5079400;28;20400;-70
2021/05/25 08:43:38;;;;;;;10.02;6.65;;;;;;;;;;5076639;28;20852;-70
2021/05/25 08:46:05;;;;;;;10.50;6.07;;;;;;;;;;5082318;28;20426;-70
2021/05/25 08:48:31;;;;;;;10.02;6.10;;;;;;;;;;5080890;28;20553;-70
2021/05/25 08:50:58;;;;;;;12.80;6.03;;;;;;;;;;5082250;28;20391;-70
2021/05/25 08:53:24;;;;;;;9.63;5.68;;;;;;;;;;5082277;28;20395;-70
2021/05/25 08:55:51;;;;;;;9.38;5.15;;;;;;;;;;5081407;28;20464;-70
2021/05/25 08:58:18;;;;;;;10.87;5.17;;;;;;;;;;5083920;28;20390;-70
2021/05/25 09:00:44;;;;;;;10.20;5.20;;;;;;;;;;5094270;28;20408;-69
2021/05/25 09:03:10;;;;;;;9.15;4.70;;;;;;;;;;5085068;28;20837;-70
2021/05/25 09:05:37;;;;;;;10.30;4.78;;;;;;;;;;5098565;28;20507;-70
2021/05/25 09:08:05;;;;;;;11.30;4.60;;;;;;;;;;5093250;28;20384;-70
2021/05/25 09:10:37;;;;;;;7.28;3.78;;;;;;;;;;5088565;28;20414;-70
2021/05/25 09:13:04;;;;;;;8.65;3.45;;;;;;;;;;5082795;28;20414;-70
2021/05/25 09:15:37;;;;;;;9.13;3.60;;;;;;;;;;5081784;28;20435;-70
2021/05/25 09:18:04;;;;;;;10.05;3.58;;;;;;;;;;5085987;28;20386;-70
2021/05/25 09:20:40;;;;;;;11.65;3.45;;;;;;;;;;5082343;28;20454;-70
2021/05/25 09:23:06;;;;;;;9.37;2.60;;;;;;;;;;5075613;28;20908;-69
2021/05/25 09:25:33;;;;;;;7.93;2.03;;;;;;;;;;5084797;28;20797;-69
2021/05/25 09:28:02;;;;;;;8.18;2.03;;;;;;;;;;5087049;28;20384;-70
2021/05/25 09:30:29;;;;;;;6.55;1.98;;;;;;;;;;5084506;28;20394;-69
2021/05/25 09:33:08;;;;;;;8.55;3.30;;;;;;;;;;5082467;28;20391;-70
2021/05/25 09:35:35;;;;;;;10.18;5.03;;;;;;;;;;5083352;28;20401;-69
2021/05/25 09:38:08;;;;;;;10.32;3.75;;;;;;;;;;5084175;28;20401;-69
2021/05/25 09:40:34;;;;;;;10.02;3.58;;;;;;;;;;5080214;28;20796;-70
2021/05/25 09:43:19;;;;;;;9.45;2.88;;;;;;;;;;5087843;28;20903;-69
2021/05/25 09:46:06;;;;;;;10.07;2.65;;;;;;;;;;5083213;28;20461;-68
2021/05/25 09:48:34;;;;;;;6.88;2.08;;;;;;;;;;5078317;28;20423;-69
2021/05/25 09:51:00;;;;;;;6.10;1.93;;;;;;;;;;5083842;28;20390;-68
2021/05/25 09:53:30;;;;;;;6.35;1.83;;;;;;;;;;5091474;28;20398;-69
2021/05/25 09:55:58;;;;;;;7.40;1.77;;;;;;;;;;5087655;28;20983;-69
2021/05/25 09:58:44;;;;;;;7.68;2.05;;;;;;;;;;5096908;28;20412;-69
2021/05/25 10:01:10;;;;;;;12.27;3.87;;;;;;;;;;5081371;28;20549;-70
2021/05/25 10:03:48;;;;;;;9.25;2.47;;;;;;;;;;5082406;28;21014;-69
2021/05/25 10:06:15;;;;;;;10.70;2.42;;;;;;;;;;5081745;28;20429;-69
2021/05/25 10:08:45;;;;;;;7.32;2.42;;;;;;;;;;5080295;28;20391;-69
2021/05/25 10:11:12;;;;;;;9.43;2.17;;;;;;;;;;5085920;28;20400;-69
2021/05/25 10:13:38;;;;;;;9.55;2.85;;;;;;;;;;5082456;28;20401;-70
2021/05/25 10:16:05;;;;;;;10.07;3.00;;;;;;;;;;5079958;28;20711;-70
2021/05/25 10:21:00;;;;;;;8.18;2.70;;;;;;;;;;5080641;28;20489;-70
2021/05/25 10:23:32;;;;;;;8.73;2.45;;;;;;;;;;5080910;28;20448;-69
2021/05/25 10:25:58;;;;;;;7.72;2.97;;;;;;;;;;5079741;28;20429;-69
2021/05/25 10:28:24;;;;;;;7.03;2.40;;;;;;;;;;5081059;28;20406;-69
2021/05/25 10:30:56;;;;;;;10.60;3.05;;;;;;;;;;5075479;28;20397;-70
2021/05/25 10:33:26;;;;;;;11.02;2.97;;;;;;;;;;5091475;28;20506;-69
2021/05/25 10:35:52;;;;;;;9.93;3.10;;;;;;;;;;5084720;28;20477;-69
2021/05/25 10:38:19;;;;;;;12.93;4.20;;;;;;;;;;5079506;28;20905;-69
2021/05/25 10:40:47;;;;;;;17.20;3.88;;;;;;;;;;5079469;28;20400;-70
2021/05/25 10:43:32;;;;;;;12.35;3.75;;;;;;;;;;5084351;28;20429;-69
2021/05/25 10:46:14;;;;;;;8.93;3.63;;;;;;;;;;5085897;28;20414;-70
2021/05/25 10:51:51;;;;;;;10.23;3.38;;;;;;;;;;5079186;28;20883;-69
2021/05/25 10:54:26;;;;;;;9.17;2.87;;;;;;;;;;5078164;28;20410;-69
2021/05/25 10:56:54;;;;;;;12.43;3.35;;;;;;;;;;5083571;28;20789;-69
2021/05/25 10:59:21;;;;;;;9.23;2.97;;;;;;;;;;5082246;28;20425;-69
2021/05/25 11:01:57;;;;;;;8.45;2.45;;;;;;;;;;5088877;28;20469;-69
2021/05/25 11:04:37;;;;;;;10.32;2.95;;;;;;;;;;5088759;28;20833;-69
2021/05/25 11:07:22;;;;;;;8.93;2.55;;;;;;;;;;5096111;28;20498;-68
2021/05/25 11:09:48;;;;;;;10.43;2.92;;;;;;;;;;5080217;28;20864;-70
2021/05/25 11:12:14;;;;;;;10.18;2.80;;;;;;;;;;5077279;28;20400;-69
2021/05/25 11:15:00;;;;;;;10.82;2.83;;;;;;;;;;5087656;28;20397;-69
2021/05/25 11:17:29;;;;;;;7.60;2.50;;;;;;;;;;5085327;28;20396;-69
2021/05/25 11:20:08;;;;;;;9.18;2.47;;;;;;;;;;5076564;28;21059;-70
2021/05/25 11:22:34;;;;;;;8.57;2.40;;;;;;;;;;5075698;28;20863;-70
2021/05/25 11:25:04;;;;;;;7.38;2.10;;;;;;;;;;5078278;28;20399;-70
2021/05/25 11:27:44;;;;;;;7.00;2.40;;;;;;;;;;5079826;28;20717;-70
2021/05/25 11:30:12;;;;;;;7.35;2.35;;;;;;;;;;5081242;28;20396;-68
2021/05/25 11:32:38;;;;;;;7.55;2.20;;;;;;;;;;5082740;28;20395;-69
2021/05/25 11:35:08;;;;;;;8.52;2.15;;;;;;;;;;5086783;28;20401;-70
2021/05/25 11:37:35;;;;;;;8.70;2.22;;;;;;;;;;5080673;28;20399;-70
2021/05/25 11:40:02;;;;;;;8.07;2.00;;;;;;;;;;5086126;28;20418;-70
2021/05/25 11:42:31;;;;;;;7.53;2.10;;;;;;;;;;5081580;28;20865;-69
2021/05/25 11:44:57;;;;;;;8.30;2.13;;;;;;;;;;5082338;28;20914;-69
2021/05/25 11:47:23;;;;;;;9.13;2.30;;;;;;;;;;5073400;28;20457;-70
2021/05/25 11:49:49;;;;;;;8.43;2.28;;;;;;;;;;5081842;28;21070;-70
2021/05/25 11:52:18;;;;;;;7.17;2.13;;;;;;;;;;5080852;28;20862;-70
2021/05/25 11:54:45;;;;;;;8.75;2.33;;;;;;;;;;5079485;28;20390;-70
2021/05/25 11:57:27;;;;;;;12.47;2.50;;;;;;;;;;5092113;28;20470;-70
2021/05/25 11:59:55;;;;;;;7.50;2.30;;;;;;;;;;5083502;28;21081;-70
2021/05/25 12:02:28;;;;;;;6.32;1.98;;;;;;;;;;5085368;28;20402;-70
2021/05/25 12:05:03;;;;;;;7.83;1.80;;;;;;;;;;5080344;28;20404;-69
2021/05/25 12:07:29;;;;;;;6.32;1.90;;;;;;;;;;5080937;28;20421;-71
2021/05/25 12:09:58;;;;;;;6.97;1.70;;;;;;;;;;5085542;28;20401;-70
2021/05/25 12:12:26;;;;;;;6.13;1.52;;;;;;;;;;5083373;28;20409;-70
2021/05/25 12:14:52;;;;;;;5.50;2.10;;;;;;;;;;5076353;28;20478;-70
2021/05/25 12:17:22;;;;;;;6.10;1.67;;;;;;;;;;5079831;28;20394;-70
2021/05/25 12:19:53;;;;;;;5.85;1.77;;;;;;;;;;5076275;28;20911;-69
2021/05/25 12:22:29;;;;;;;5.28;1.80;;;;;;;;;;5072739;28;20492;-70
2021/05/25 12:25:12;;;;;;;8.52;2.00;;;;;;;;;;5066843;28;20466;-70
2021/05/25 12:27:38;;;;;;;8.98;1.85;;;;;;;;;;5072612;28;20452;-70
2021/05/25 12:30:05;;;;;;;6.18;1.60;;;;;;;;;;5075022;28;20386;-69
2021/05/25 12:32:31;;;;;;;6.80;1.75;;;;;;;;;;5081917;28;20405;-71
2021/05/25 12:35:00;;;;;;;9.00;1.83;;;;;;;;;;5074917;28;20469;-71
2021/05/25 12:37:26;;;;;;;4.82;1.50;;;;;;;;;;5075081;28;20782;-70
2021/05/25 12:40:09;;;;;;;5.05;1.63;;;;;;;;;;5083173;28;20485;-71
2021/05/25 12:42:37;;;;;;;5.38;1.65;;;;;;;;;;5083431;28;20398;-72
2021/05/25 12:45:15;;;;;;;3.33;1.10;;;;;;;;;;5084698;28;20381;-70
2021/05/25 12:48:00;;;;;;;4.82;1.10;;;;;;;;;;5084668;28;20957;-71
2021/05/25 12:50:34;;;;;;;8.13;1.30;;;;;;;;;;5086859;28;20421;-71
2021/05/25 12:53:09;;;;;;;5.15;1.30;;;;;;;;;;5082117;28;20484;-72
2021/05/25 12:55:40;;;;;;;5.43;1.47;;;;;;;;;;5089787;28;20429;-70
2021/05/25 12:58:06;;;;;;;5.53;1.35;;;;;;;;;;5084717;28;20751;-70
2021/05/25 13:00:41;;;;;;;5.32;1.38;;;;;;;;;;5083491;28;20392;-70
2021/05/25 13:03:23;;;;;;;4.68;1.25;;;;;;;;;;5089562;28;20786;-70
2021/05/25 13:05:52;;;;;;;5.38;1.02;;;;;;;;;;5080508;28;20421;-70
2021/05/25 13:08:32;;;;;;;4.78;1.20;;;;;;;;;;5079036;28;20535;-70
2021/05/25 13:11:06;;;;;;;4.30;1.30;;;;;;;;;;5079076;28;20529;-70
2021/05/25 13:13:37;;;;;;;3.78;1.20;;;;;;;;;;5083827;28;20393;-73
2021/05/25 13:16:04;;;;;;;3.53;1.10;;;;;;;;;;5079711;28;20394;-71
2021/05/25 13:18:40;;;;;;;4.88;1.27;;;;;;;;;;5079724;28;20422;-72
2021/05/25 13:21:09;;;;;;;3.90;1.20;;;;;;;;;;5080211;28;20409;-71
2021/05/25 13:23:36;;;;;;;3.95;1.17;;;;;;;;;;5080365;28;20389;-70
2021/05/25 13:28:48;;;;;;;3.60;1.10;;;;;;;;;;5076163;28;20995;-71
2021/05/25 13:31:15;;;;;;;5.78;1.00;;;;;;;;;;5080100;28;20433;-70
2021/05/25 13:33:41;;;;;;;3.90;0.90;;;;;;;;;;5077430;28;20431;-71
2021/05/25 13:36:08;;;;;;;2.60;0.98;;;;;;;;;;5079431;28;20926;-69
2021/05/25 13:38:34;;;;;;;1.80;0.70;;;;;;;;;;5086948;28;20406;-71
2021/05/25 13:41:00;;;;;;;3.53;1.20;;;;;;;;;;5088798;28;20405;-71
2021/05/25 13:43:26;;;;;;;3.58;0.90;;;;;;;;;;5083848;28;20447;-70
2021/05/25 13:45:52;;;;;;;8.00;1.52;;;;;;;;;;5084375;28;20435;-70
2021/05/25 13:48:18;;;;;;;3.15;1.00;;;;;;;;;;5082696;28;20421;-70
2021/05/25 13:50:44;;;;;;;3.72;1.20;;;;;;;;;;5082413;28;20430;-70
2021/05/25 13:53:10;;;;;;;4.63;1.37;;;;;;;;;;5081875;28;20805;-71
2021/05/25 13:55:36;;;;;;;7.03;1.52;;;;;;;;;;5082445;28;20421;-70
2021/05/25 13:58:04;;;;;;;4.47;1.30;;;;;;;;;;5084136;28;20400;-70
2021/05/25 14:00:43;;;;;;;4.32;1.35;;;;;;;;;;5079029;28;20452;-71
2021/05/25 14:03:10;;;;;;;4.07;1.20;;;;;;;;;;5085040;28;20483;-70
2021/05/25 14:05:35;;;;;;;5.17;1.30;;;;;;;;;;5080728;28;20432;-69
2021/05/25 14:08:01;;;;;;;5.70;1.10;;;;;;;;;;5085248;28;20393;-71
2021/05/25 14:10:32;;;;;;;4.00;1.02;;;;;;;;;;5078158;28;20511;-70
2021/05/25 14:12:57;;;;;;;4.72;1.30;;;;;;;;;;5083880;28;20393;-70
2021/05/25 14:15:23;;;;;;;5.80;1.60;;;;;;;;;;5084280;28;20411;-70
2021/05/25 14:17:49;;;;;;;6.00;1.60;;;;;;;;;;5083464;28;20393;-71
2021/05/25 14:20:16;;;;;;;7.22;1.50;;;;;;;;;;5086206;28;20469;-71
2021/05/25 14:22:42;;;;;;;3.30;1.00;;;;;;;;;;5084873;28;20415;-71
2021/05/25 14:25:08;;;;;;;4.93;1.10;;;;;;;;;;5080749;28;20386;-72
2021/05/25 14:27:34;;;;;;;3.42;0.82;;;;;;;;;;5082860;28;20479;-71
2021/05/25 14:30:00;;;;;;;4.07;0.93;;;;;;;;;;5081503;28;20487;-71
2021/05/25 14:32:27;;;;;;;3.22;0.93;;;;;;;;;;5085572;28;20920;-71
2021/05/25 14:34:53;;;;;;;3.30;1.15;;;;;;;;;;5089941;28;20722;-71
2021/05/25 14:37:19;;;;;;;2.67;0.90;;;;;;;;;;5088244;28;20392;-70
2021/05/25 14:39:45;;;;;;;3.47;0.82;;;;;;;;;;5081073;28;20731;-70
2021/05/25 14:42:11;;;;;;;2.30;0.70;;;;;;;;;;5082529;28;20850;-72
2021/05/25 14:44:37;;;;;;;3.75;1.10;;;;;;;;;;5087136;28;20390;-71
2021/05/25 14:47:03;;;;;;;4.32;1.20;;;;;;;;;;5081454;28;20446;-71
2021/05/25 14:49:29;;;;;;;3.92;1.30;;;;;;;;;;5084091;28;20721;-71
2021/05/25 14:51:55;;;;;;;3.30;1.20;;;;;;;;;;5077498;28;20957;-71